Mountain Home, Utah
Current Conditions -  °F | °C
As of 10:53 AM on Tuesday 21 Oct 2014 (Local Time) from KVEL Reporting Station
Scattered Clouds Scattered Clouds  
Wind Chill: 57°   Ceiling: Unl
Heat Index: 57°   Visibility: 10mi
Dew Point: 39°   Wind: 0mph
Humidity: 51%   Direction: NA
Pressure: 30.04"   Gusts: NA
Location:  40.4°N, 110.39°W
Report Text: KVEL 211653Z AUTO 00000KT 10SM SCT100 14/04 A3004 RMK AO2 SLP138 T01390039
Loading
Personal Weather Stations






























Interactive Weather Map
Tropical Storm Tracking
New forecast layout! Learn more

10-Day Weather Forecast

Advertisements
Track Severe Weather on mobile